sensor_id;sensor_type;location;lat;lon;timestamp;P1;durP1;ratioP1;P2;durP2;ratioP2
47481;SDS011;33219;47.410;9.730;2022-12-18T00:01:26;48.60;;;20.60;;
47481;SDS011;33219;47.410;9.730;2022-12-18T00:04:02;56.63;;;21.23;;
47481;SDS011;33219;47.410;9.730;2022-12-18T00:06:32;59.37;;;22.50;;
47481;SDS011;33219;47.410;9.730;2022-12-18T00:09:01;54.23;;;22.47;;
47481;SDS011;33219;47.410;9.730;2022-12-18T00:11:30;58.37;;;23.47;;
47481;SDS011;33219;47.410;9.730;2022-12-18T00:13:58;52.23;;;21.33;;
47481;SDS011;33219;47.410;9.730;2022-12-18T00:16:27;54.83;;;21.50;;
47481;SDS011;33219;47.410;9.730;2022-12-18T00:18:57;56.60;;;23.57;;
47481;SDS011;33219;47.410;9.730;2022-12-18T00:21:26;54.63;;;22.33;;
47481;SDS011;33219;47.410;9.730;2022-12-18T00:23:54;60.80;;;21.37;;
47481;SDS011;33219;47.410;9.730;2022-12-18T00:26:24;52.60;;;21.53;;
47481;SDS011;33219;47.410;9.730;2022-12-18T00:28:54;55.93;;;21.33;;
47481;SDS011;33219;47.410;9.730;2022-12-18T00:31:24;59.57;;;21.20;;
47481;SDS011;33219;47.410;9.730;2022-12-18T00:33:53;58.93;;;21.80;;
47481;SDS011;33219;47.410;9.730;2022-12-18T00:36:22;51.87;;;20.53;;
47481;SDS011;33219;47.410;9.730;2022-12-18T00:38:53;57.83;;;23.23;;
47481;SDS011;33219;47.410;9.730;2022-12-18T00:41:22;50.10;;;20.07;;
47481;SDS011;33219;47.410;9.730;2022-12-18T00:44:09;50.93;;;19.70;;
47481;SDS011;33219;47.410;9.730;2022-12-18T00:46:39;50.57;;;18.23;;
47481;SDS011;33219;47.410;9.730;2022-12-18T00:49:07;49.33;;;17.60;;
47481;SDS011;33219;47.410;9.730;2022-12-18T00:51:34;48.43;;;17.63;;
47481;SDS011;33219;47.410;9.730;2022-12-18T00:54:03;47.50;;;18.20;;
47481;SDS011;33219;47.410;9.730;2022-12-18T00:56:31;46.00;;;18.30;;
47481;SDS011;33219;47.410;9.730;2022-12-18T00:58:58;46.43;;;17.47;;
47481;SDS011;33219;47.410;9.730;2022-12-18T01:01:26;46.87;;;17.90;;
47481;SDS011;33219;47.410;9.730;2022-12-18T01:03:53;47.90;;;17.77;;
47481;SDS011;33219;47.410;9.730;2022-12-18T01:06:21;43.00;;;18.27;;
47481;SDS011;33219;47.410;9.730;2022-12-18T01:08:49;51.27;;;18.17;;
47481;SDS011;33219;47.410;9.730;2022-12-18T01:11:17;50.03;;;18.87;;
47481;SDS011;33219;47.410;9.730;2022-12-18T01:13:46;54.33;;;19.37;;
47481;SDS011;33219;47.410;9.730;2022-12-18T01:16:15;51.53;;;20.23;;
47481;SDS011;33219;47.410;9.730;2022-12-18T01:18:43;49.50;;;18.83;;
47481;SDS011;33219;47.410;9.730;2022-12-18T01:21:12;46.90;;;19.13;;
47481;SDS011;33219;47.410;9.730;2022-12-18T01:23:41;55.10;;;20.53;;
47481;SDS011;33219;47.410;9.730;2022-12-18T01:26:13;54.13;;;21.10;;
47481;SDS011;33219;47.410;9.730;2022-12-18T01:31:18;55.57;;;20.23;;
47481;SDS011;33219;47.410;9.730;2022-12-18T01:33:43;47.33;;;18.20;;
47481;SDS011;33219;47.410;9.730;2022-12-18T01:36:30;51.87;;;19.80;;
47481;SDS011;33219;47.410;9.730;2022-12-18T01:38:53;57.90;;;20.00;;
47481;SDS011;33219;47.410;9.730;2022-12-18T01:41:24;59.40;;;22.93;;
47481;SDS011;33219;47.410;9.730;2022-12-18T01:43:57;61.00;;;22.80;;
47481;SDS011;33219;47.410;9.730;2022-12-18T01:46:23;60.27;;;21.50;;
47481;SDS011;33219;47.410;9.730;2022-12-18T01:48:56;60.83;;;21.43;;
47481;SDS011;33219;47.410;9.730;2022-12-18T01:51:25;58.80;;;22.43;;
47481;SDS011;33219;47.410;9.730;2022-12-18T01:53:56;61.87;;;23.40;;
47481;SDS011;33219;47.410;9.730;2022-12-18T01:56:24;64.87;;;24.50;;
47481;SDS011;33219;47.410;9.730;2022-12-18T01:58:56;59.10;;;23.20;;
47481;SDS011;33219;47.410;9.730;2022-12-18T02:01:31;57.87;;;21.77;;
47481;SDS011;33219;47.410;9.730;2022-12-18T02:04:42;58.20;;;23.23;;
47481;SDS011;33219;47.410;9.730;2022-12-18T02:06:45;53.03;;;20.70;;
47481;SDS011;33219;47.410;9.730;2022-12-18T02:09:18;59.70;;;23.03;;
47481;SDS011;33219;47.410;9.730;2022-12-18T02:11:50;49.77;;;21.57;;
47481;SDS011;33219;47.410;9.730;2022-12-18T02:14:30;48.93;;;20.43;;
47481;SDS011;33219;47.410;9.730;2022-12-18T02:17:03;54.07;;;21.30;;
47481;SDS011;33219;47.410;9.730;2022-12-18T02:22:24;58.47;;;21.70;;
47481;SDS011;33219;47.410;9.730;2022-12-18T02:27:34;54.00;;;20.37;;
47481;SDS011;33219;47.410;9.730;2022-12-18T02:30:05;55.97;;;23.77;;
47481;SDS011;33219;47.410;9.730;2022-12-18T02:32:34;54.83;;;24.60;;
47481;SDS011;33219;47.410;9.730;2022-12-18T02:35:08;61.40;;;24.70;;
47481;SDS011;33219;47.410;9.730;2022-12-18T02:37:37;59.47;;;23.30;;
47481;SDS011;33219;47.410;9.730;2022-12-18T02:40:08;62.67;;;24.67;;
47481;SDS011;33219;47.410;9.730;2022-12-18T02:42:37;58.23;;;23.70;;
47481;SDS011;33219;47.410;9.730;2022-12-18T02:45:05;73.10;;;30.70;;
47481;SDS011;33219;47.410;9.730;2022-12-18T02:47:33;72.23;;;30.73;;
47481;SDS011;33219;47.410;9.730;2022-12-18T02:55:31;66.57;;;26.02;;
47481;SDS011;33219;47.410;9.730;2022-12-18T02:58:15;59.77;;;25.80;;
47481;SDS011;33219;47.410;9.730;2022-12-18T03:00:56;61.83;;;24.63;;
47481;SDS011;33219;47.410;9.730;2022-12-18T03:03:33;66.83;;;26.77;;
47481;SDS011;33219;47.410;9.730;2022-12-18T03:06:06;57.90;;;22.20;;
47481;SDS011;33219;47.410;9.730;2022-12-18T03:08:37;58.90;;;23.53;;
47481;SDS011;33219;47.410;9.730;2022-12-18T03:11:06;62.67;;;25.23;;
47481;SDS011;33219;47.410;9.730;2022-12-18T03:13:54;52.30;;;23.67;;
47481;SDS011;33219;47.410;9.730;2022-12-18T03:16:17;59.07;;;25.10;;
47481;SDS011;33219;47.410;9.730;2022-12-18T03:18:46;62.53;;;24.77;;
47481;SDS011;33219;47.410;9.730;2022-12-18T03:21:17;54.00;;;21.30;;
47481;SDS011;33219;47.410;9.730;2022-12-18T03:23:48;50.77;;;21.17;;
47481;SDS011;33219;47.410;9.730;2022-12-18T03:26:19;51.27;;;21.03;;
47481;SDS011;33219;47.410;9.730;2022-12-18T03:28:59;54.77;;;20.67;;
47481;SDS011;33219;47.410;9.730;2022-12-18T03:31:24;50.67;;;20.73;;
47481;SDS011;33219;47.410;9.730;2022-12-18T03:33:55;55.60;;;20.70;;
47481;SDS011;33219;47.410;9.730;2022-12-18T03:36:28;46.83;;;18.83;;
47481;SDS011;33219;47.410;9.730;2022-12-18T03:38:55;55.03;;;20.00;;
47481;SDS011;33219;47.410;9.730;2022-12-18T03:41:33;50.20;;;20.73;;
47481;SDS011;33219;47.410;9.730;2022-12-18T03:47:02;49.20;;;19.10;;
47481;SDS011;33219;47.410;9.730;2022-12-18T03:52:28;42.37;;;16.93;;
47481;SDS011;33219;47.410;9.730;2022-12-18T03:55:00;45.80;;;17.17;;
47481;SDS011;33219;47.410;9.730;2022-12-18T03:57:30;45.40;;;18.83;;
47481;SDS011;33219;47.410;9.730;2022-12-18T04:00:09;47.07;;;18.47;;
47481;SDS011;33219;47.410;9.730;2022-12-18T04:02:40;50.10;;;18.90;;
47481;SDS011;33219;47.410;9.730;2022-12-18T04:05:09;41.17;;;17.70;;
47481;SDS011;33219;47.410;9.730;2022-12-18T04:07:38;42.80;;;16.40;;
47481;SDS011;33219;47.410;9.730;2022-12-18T04:10:07;42.33;;;18.03;;
47481;SDS011;33219;47.410;9.730;2022-12-18T04:12:36;42.63;;;17.73;;
47481;SDS011;33219;47.410;9.730;2022-12-18T04:15:05;46.80;;;17.87;;
47481;SDS011;33219;47.410;9.730;2022-12-18T04:17:33;44.80;;;18.03;;
47481;SDS011;33219;47.410;9.730;2022-12-18T04:20:01;43.03;;;17.50;;
47481;SDS011;33219;47.410;9.730;2022-12-18T04:22:29;46.07;;;18.60;;
47481;SDS011;33219;47.410;9.730;2022-12-18T04:24:57;44.13;;;18.33;;
47481;SDS011;33219;47.410;9.730;2022-12-18T04:27:24;47.60;;;18.23;;
47481;SDS011;33219;47.410;9.730;2022-12-18T04:29:52;53.67;;;20.27;;
47481;SDS011;33219;47.410;9.730;2022-12-18T04:32:19;50.10;;;20.03;;
47481;SDS011;33219;47.410;9.730;2022-12-18T04:34:47;47.73;;;18.93;;
47481;SDS011;33219;47.410;9.730;2022-12-18T04:37:14;47.30;;;18.47;;
47481;SDS011;33219;47.410;9.730;2022-12-18T04:39:42;46.10;;;18.03;;
47481;SDS011;33219;47.410;9.730;2022-12-18T04:42:10;49.30;;;19.40;;
47481;SDS011;33219;47.410;9.730;2022-12-18T04:44:37;46.03;;;18.47;;
47481;SDS011;33219;47.410;9.730;2022-12-18T04:47:05;47.40;;;19.80;;
47481;SDS011;33219;47.410;9.730;2022-12-18T04:49:33;47.33;;;20.87;;
47481;SDS011;33219;47.410;9.730;2022-12-18T04:52:00;46.30;;;17.80;;
47481;SDS011;33219;47.410;9.730;2022-12-18T04:54:28;44.90;;;17.63;;
47481;SDS011;33219;47.410;9.730;2022-12-18T04:56:55;40.70;;;16.80;;
47481;SDS011;33219;47.410;9.730;2022-12-18T04:59:23;42.17;;;16.87;;
47481;SDS011;33219;47.410;9.730;2022-12-18T05:01:50;44.43;;;17.33;;
47481;SDS011;33219;47.410;9.730;2022-12-18T05:04:18;43.63;;;16.97;;
47481;SDS011;33219;47.410;9.730;2022-12-18T05:06:46;45.83;;;17.07;;
47481;SDS011;33219;47.410;9.730;2022-12-18T05:09:13;41.73;;;17.33;;
47481;SDS011;33219;47.410;9.730;2022-12-18T05:11:41;44.93;;;18.17;;
47481;SDS011;33219;47.410;9.730;2022-12-18T05:14:09;39.43;;;17.37;;
47481;SDS011;33219;47.410;9.730;2022-12-18T05:16:36;41.57;;;17.53;;
47481;SDS011;33219;47.410;9.730;2022-12-18T05:19:04;41.80;;;17.03;;
47481;SDS011;33219;47.410;9.730;2022-12-18T05:21:31;39.60;;;16.33;;
47481;SDS011;33219;47.410;9.730;2022-12-18T05:23:59;40.13;;;16.37;;
47481;SDS011;33219;47.410;9.730;2022-12-18T05:26:28;38.37;;;15.50;;
47481;SDS011;33219;47.410;9.730;2022-12-18T05:28:56;41.37;;;15.30;;
47481;SDS011;33219;47.410;9.730;2022-12-18T05:31:23;35.40;;;15.23;;
47481;SDS011;33219;47.410;9.730;2022-12-18T05:33:51;33.90;;;14.13;;
47481;SDS011;33219;47.410;9.730;2022-12-18T05:36:18;38.03;;;16.77;;
47481;SDS011;33219;47.410;9.730;2022-12-18T05:38:46;34.50;;;15.40;;
47481;SDS011;33219;47.410;9.730;2022-12-18T05:41:14;41.07;;;16.17;;
47481;SDS011;33219;47.410;9.730;2022-12-18T05:43:42;42.40;;;16.50;;
47481;SDS011;33219;47.410;9.730;2022-12-18T05:46:13;41.90;;;16.67;;
47481;SDS011;33219;47.410;9.730;2022-12-18T05:48:44;42.60;;;16.67;;
47481;SDS011;33219;47.410;9.730;2022-12-18T05:51:13;39.70;;;16.63;;
47481;SDS011;33219;47.410;9.730;2022-12-18T05:53:42;41.67;;;15.57;;
47481;SDS011;33219;47.410;9.730;2022-12-18T05:56:14;40.37;;;15.97;;
47481;SDS011;33219;47.410;9.730;2022-12-18T05:58:42;41.07;;;16.27;;
47481;SDS011;33219;47.410;9.730;2022-12-18T06:01:13;34.73;;;15.57;;
47481;SDS011;33219;47.410;9.730;2022-12-18T06:03:42;37.90;;;16.67;;
47481;SDS011;33219;47.410;9.730;2022-12-18T06:06:14;40.13;;;16.73;;
47481;SDS011;33219;47.410;9.730;2022-12-18T06:08:46;38.53;;;15.70;;
47481;SDS011;33219;47.410;9.730;2022-12-18T06:11:16;36.90;;;16.27;;
47481;SDS011;33219;47.410;9.730;2022-12-18T06:13:45;36.70;;;14.37;;
47481;SDS011;33219;47.410;9.730;2022-12-18T06:16:12;38.03;;;16.47;;
47481;SDS011;33219;47.410;9.730;2022-12-18T06:18:40;35.00;;;15.73;;
47481;SDS011;33219;47.410;9.730;2022-12-18T06:21:07;31.50;;;14.00;;
47481;SDS011;33219;47.410;9.730;2022-12-18T06:23:35;34.73;;;14.73;;
47481;SDS011;33219;47.410;9.730;2022-12-18T06:26:04;28.17;;;13.00;;
47481;SDS011;33219;47.410;9.730;2022-12-18T06:28:37;29.80;;;13.27;;
47481;SDS011;33219;47.410;9.730;2022-12-18T06:31:04;29.83;;;13.30;;
47481;SDS011;33219;47.410;9.730;2022-12-18T06:33:32;29.73;;;13.00;;
47481;SDS011;33219;47.410;9.730;2022-12-18T06:36:02;33.83;;;14.67;;
47481;SDS011;33219;47.410;9.730;2022-12-18T06:38:35;29.30;;;13.30;;
47481;SDS011;33219;47.410;9.730;2022-12-18T06:41:10;29.30;;;13.70;;
47481;SDS011;33219;47.410;9.730;2022-12-18T06:43:42;39.47;;;14.90;;
47481;SDS011;33219;47.410;9.730;2022-12-18T06:46:10;34.03;;;13.77;;
47481;SDS011;33219;47.410;9.730;2022-12-18T06:48:39;31.40;;;13.10;;
47481;SDS011;33219;47.410;9.730;2022-12-18T06:51:06;34.53;;;13.30;;
47481;SDS011;33219;47.410;9.730;2022-12-18T06:53:34;38.07;;;14.73;;
47481;SDS011;33219;47.410;9.730;2022-12-18T06:56:07;37.30;;;14.57;;
47481;SDS011;33219;47.410;9.730;2022-12-18T06:58:32;39.03;;;14.83;;
47481;SDS011;33219;47.410;9.730;2022-12-18T07:01:01;39.90;;;15.27;;
47481;SDS011;33219;47.410;9.730;2022-12-18T07:03:30;43.80;;;15.67;;
47481;SDS011;33219;47.410;9.730;2022-12-18T07:05:58;37.43;;;15.97;;
47481;SDS011;33219;47.410;9.730;2022-12-18T07:08:25;38.67;;;14.30;;
47481;SDS011;33219;47.410;9.730;2022-12-18T07:10:54;47.27;;;16.13;;
47481;SDS011;33219;47.410;9.730;2022-12-18T07:13:22;43.33;;;16.67;;
47481;SDS011;33219;47.410;9.730;2022-12-18T07:15:50;39.10;;;16.20;;
47481;SDS011;33219;47.410;9.730;2022-12-18T07:18:18;37.77;;;14.43;;
47481;SDS011;33219;47.410;9.730;2022-12-18T07:20:45;38.13;;;15.27;;
47481;SDS011;33219;47.410;9.730;2022-12-18T07:23:13;41.77;;;16.17;;
47481;SDS011;33219;47.410;9.730;2022-12-18T07:25:40;39.70;;;15.50;;
47481;SDS011;33219;47.410;9.730;2022-12-18T07:28:08;40.10;;;16.17;;
47481;SDS011;33219;47.410;9.730;2022-12-18T07:30:37;38.77;;;13.20;;
47481;SDS011;33219;47.410;9.730;2022-12-18T07:33:04;41.53;;;15.50;;
47481;SDS011;33219;47.410;9.730;2022-12-18T07:35:32;39.50;;;14.67;;
47481;SDS011;33219;47.410;9.730;2022-12-18T07:38:00;42.50;;;14.30;;
47481;SDS011;33219;47.410;9.730;2022-12-18T07:40:28;38.47;;;16.70;;
47481;SDS011;33219;47.410;9.730;2022-12-18T07:42:55;47.83;;;16.30;;
47481;SDS011;33219;47.410;9.730;2022-12-18T07:45:23;36.63;;;14.27;;
47481;SDS011;33219;47.410;9.730;2022-12-18T07:47:50;45.13;;;16.50;;
47481;SDS011;33219;47.410;9.730;2022-12-18T07:50:18;42.57;;;16.50;;
47481;SDS011;33219;47.410;9.730;2022-12-18T07:52:45;40.90;;;14.40;;
47481;SDS011;33219;47.410;9.730;2022-12-18T07:55:13;38.80;;;16.27;;
47481;SDS011;33219;47.410;9.730;2022-12-18T07:57:40;40.90;;;15.60;;
47481;SDS011;33219;47.410;9.730;2022-12-18T08:00:08;39.53;;;15.13;;
47481;SDS011;33219;47.410;9.730;2022-12-18T08:02:37;34.43;;;14.43;;
47481;SDS011;33219;47.410;9.730;2022-12-18T08:05:04;36.70;;;14.23;;
47481;SDS011;33219;47.410;9.730;2022-12-18T08:07:32;36.33;;;14.97;;
47481;SDS011;33219;47.410;9.730;2022-12-18T08:09:59;34.47;;;14.37;;
47481;SDS011;33219;47.410;9.730;2022-12-18T08:12:27;36.23;;;15.00;;
47481;SDS011;33219;47.410;9.730;2022-12-18T08:14:55;39.77;;;14.77;;
47481;SDS011;33219;47.410;9.730;2022-12-18T08:17:22;23.30;;;8.97;;
47481;SDS011;33219;47.410;9.730;2022-12-18T08:19:50;35.60;;;13.77;;
47481;SDS011;33219;47.410;9.730;2022-12-18T08:22:17;32.63;;;13.87;;
47481;SDS011;33219;47.410;9.730;2022-12-18T08:24:45;39.60;;;14.53;;
47481;SDS011;33219;47.410;9.730;2022-12-18T08:27:12;28.53;;;12.90;;
47481;SDS011;33219;47.410;9.730;2022-12-18T08:29:40;33.83;;;13.70;;
47481;SDS011;33219;47.410;9.730;2022-12-18T08:32:07;29.43;;;12.57;;
47481;SDS011;33219;47.410;9.730;2022-12-18T08:34:35;28.00;;;11.20;;
47481;SDS011;33219;47.410;9.730;2022-12-18T08:37:03;33.93;;;12.80;;
47481;SDS011;33219;47.410;9.730;2022-12-18T08:39:30;32.33;;;12.30;;
47481;SDS011;33219;47.410;9.730;2022-12-18T08:41:58;27.87;;;11.03;;
47481;SDS011;33219;47.410;9.730;2022-12-18T08:44:43;27.70;;;11.43;;
47481;SDS011;33219;47.410;9.730;2022-12-18T08:47:11;25.93;;;11.27;;
47481;SDS011;33219;47.410;9.730;2022-12-18T08:49:38;29.20;;;11.97;;
47481;SDS011;33219;47.410;9.730;2022-12-18T08:52:06;31.77;;;14.13;;
47481;SDS011;33219;47.410;9.730;2022-12-18T08:54:35;30.93;;;13.17;;
47481;SDS011;33219;47.410;9.730;2022-12-18T08:57:03;28.57;;;12.37;;
47481;SDS011;33219;47.410;9.730;2022-12-18T08:59:30;27.23;;;12.03;;
47481;SDS011;33219;47.410;9.730;2022-12-18T09:01:58;25.07;;;11.40;;
47481;SDS011;33219;47.410;9.730;2022-12-18T09:04:25;27.33;;;12.03;;
47481;SDS011;33219;47.410;9.730;2022-12-18T09:06:53;22.73;;;10.80;;
47481;SDS011;33219;47.410;9.730;2022-12-18T09:09:21;31.30;;;12.73;;
47481;SDS011;33219;47.410;9.730;2022-12-18T09:11:49;27.13;;;11.27;;
47481;SDS011;33219;47.410;9.730;2022-12-18T09:14:17;24.57;;;12.10;;
47481;SDS011;33219;47.410;9.730;2022-12-18T09:16:44;25.23;;;11.07;;
47481;SDS011;33219;47.410;9.730;2022-12-18T09:19:13;24.53;;;10.53;;
47481;SDS011;33219;47.410;9.730;2022-12-18T09:21:40;25.93;;;12.40;;
47481;SDS011;33219;47.410;9.730;2022-12-18T09:24:08;26.07;;;11.43;;
47481;SDS011;33219;47.410;9.730;2022-12-18T09:26:39;26.83;;;12.00;;
47481;SDS011;33219;47.410;9.730;2022-12-18T09:29:07;29.10;;;11.60;;
47481;SDS011;33219;47.410;9.730;2022-12-18T09:31:35;29.20;;;11.90;;
47481;SDS011;33219;47.410;9.730;2022-12-18T09:34:04;27.10;;;12.10;;
47481;SDS011;33219;47.410;9.730;2022-12-18T09:36:32;28.53;;;13.30;;
47481;SDS011;33219;47.410;9.730;2022-12-18T09:39:00;30.47;;;11.80;;
47481;SDS011;33219;47.410;9.730;2022-12-18T09:44:18;28.77;;;12.73;;
47481;SDS011;33219;47.410;9.730;2022-12-18T09:46:51;29.02;;;11.85;;
47481;SDS011;33219;47.410;9.730;2022-12-18T09:49:21;30.50;;;12.17;;
47481;SDS011;33219;47.410;9.730;2022-12-18T09:51:52;28.90;;;12.73;;
47481;SDS011;33219;47.410;9.730;2022-12-18T09:54:25;24.23;;;9.97;;
47481;SDS011;33219;47.410;9.730;2022-12-18T09:56:54;25.67;;;10.70;;
47481;SDS011;33219;47.410;9.730;2022-12-18T09:59:27;28.50;;;11.47;;
47481;SDS011;33219;47.410;9.730;2022-12-18T10:01:56;29.80;;;12.80;;
47481;SDS011;33219;47.410;9.730;2022-12-18T10:04:24;25.17;;;11.37;;
47481;SDS011;33219;47.410;9.730;2022-12-18T10:09:37;29.57;;;12.80;;
47481;SDS011;33219;47.410;9.730;2022-12-18T10:12:14;25.05;;;11.90;;
47481;SDS011;33219;47.410;9.730;2022-12-18T10:20:17;26.90;;;12.07;;
47481;SDS011;33219;47.410;9.730;2022-12-18T10:26:00;24.43;;;12.00;;
47481;SDS011;33219;47.410;9.730;2022-12-18T10:28:31;25.77;;;10.97;;
47481;SDS011;33219;47.410;9.730;2022-12-18T10:30:58;33.73;;;12.40;;
47481;SDS011;33219;47.410;9.730;2022-12-18T10:33:30;27.00;;;11.40;;
47481;SDS011;33219;47.410;9.730;2022-12-18T10:35:59;27.90;;;12.10;;
47481;SDS011;33219;47.410;9.730;2022-12-18T10:38:28;26.30;;;12.93;;
47481;SDS011;33219;47.410;9.730;2022-12-18T10:41:01;28.43;;;12.40;;
47481;SDS011;33219;47.410;9.730;2022-12-18T10:43:32;25.80;;;11.30;;
47481;SDS011;33219;47.410;9.730;2022-12-18T10:51:20;37.03;;;14.87;;
47481;SDS011;33219;47.410;9.730;2022-12-18T10:53:51;38.57;;;13.80;;
47481;SDS011;33219;47.410;9.730;2022-12-18T10:56:21;32.73;;;14.33;;
47481;SDS011;33219;47.410;9.730;2022-12-18T10:59:01;34.53;;;14.60;;
47481;SDS011;33219;47.410;9.730;2022-12-18T11:04:24;27.82;;;13.40;;
47481;SDS011;33219;47.410;9.730;2022-12-18T11:07:03;29.87;;;14.20;;
47481;SDS011;33219;47.410;9.730;2022-12-18T11:09:37;29.93;;;13.33;;
47481;SDS011;33219;47.410;9.730;2022-12-18T11:12:21;32.40;;;15.17;;
47481;SDS011;33219;47.410;9.730;2022-12-18T11:14:51;30.43;;;13.97;;
47481;SDS011;33219;47.410;9.730;2022-12-18T11:17:19;34.00;;;15.93;;
47481;SDS011;33219;47.410;9.730;2022-12-18T11:19:59;35.93;;;14.30;;
47481;SDS011;33219;47.410;9.730;2022-12-18T11:22:32;30.27;;;13.33;;
47481;SDS011;33219;47.410;9.730;2022-12-18T11:25:04;35.43;;;15.37;;
47481;SDS011;33219;47.410;9.730;2022-12-18T11:27:32;33.83;;;13.97;;
47481;SDS011;33219;47.410;9.730;2022-12-18T11:30:09;38.13;;;15.60;;
47481;SDS011;33219;47.410;9.730;2022-12-18T11:32:40;33.77;;;14.77;;
47481;SDS011;33219;47.410;9.730;2022-12-18T11:38:04;35.43;;;16.43;;
47481;SDS011;33219;47.410;9.730;2022-12-18T11:40:45;36.07;;;15.50;;
47481;SDS011;33219;47.410;9.730;2022-12-18T11:43:21;36.83;;;15.53;;
47481;SDS011;33219;47.410;9.730;2022-12-18T11:46:08;37.67;;;14.83;;
47481;SDS011;33219;47.410;9.730;2022-12-18T11:51:25;33.47;;;14.97;;
47481;SDS011;33219;47.410;9.730;2022-12-18T11:54:07;34.57;;;15.20;;
47481;SDS011;33219;47.410;9.730;2022-12-18T11:56:46;33.17;;;14.00;;
47481;SDS011;33219;47.410;9.730;2022-12-18T11:59:18;32.83;;;14.67;;
47481;SDS011;33219;47.410;9.730;2022-12-18T12:07:09;32.40;;;13.50;;
47481;SDS011;33219;47.410;9.730;2022-12-18T12:09:59;31.68;;;13.83;;
47481;SDS011;33219;47.410;9.730;2022-12-18T12:15:13;32.97;;;14.03;;
47481;SDS011;33219;47.410;9.730;2022-12-18T12:17:45;33.97;;;13.93;;
47481;SDS011;33219;47.410;9.730;2022-12-18T12:20:22;31.37;;;13.37;;
47481;SDS011;33219;47.410;9.730;2022-12-18T12:23:18;36.00;;;14.27;;
47481;SDS011;33219;47.410;9.730;2022-12-18T12:25:59;33.10;;;13.83;;
47481;SDS011;33219;47.410;9.730;2022-12-18T12:39:36;34.53;;;14.17;;
47481;SDS011;33219;47.410;9.730;2022-12-18T12:42:11;34.90;;;14.57;;
47481;SDS011;33219;47.410;9.730;2022-12-18T12:44:52;31.60;;;13.63;;
47481;SDS011;33219;47.410;9.730;2022-12-18T12:47:32;32.33;;;13.83;;
47481;SDS011;33219;47.410;9.730;2022-12-18T12:50:02;32.67;;;14.30;;
47481;SDS011;33219;47.410;9.730;2022-12-18T12:52:39;32.13;;;14.47;;
47481;SDS011;33219;47.410;9.730;2022-12-18T12:55:13;33.53;;;14.33;;
47481;SDS011;33219;47.410;9.730;2022-12-18T12:57:48;35.57;;;14.87;;
47481;SDS011;33219;47.410;9.730;2022-12-18T13:00:16;33.47;;;14.30;;
47481;SDS011;33219;47.410;9.730;2022-12-18T13:05:48;20.97;;;9.73;;
47481;SDS011;33219;47.410;9.730;2022-12-18T13:08:04;31.87;;;14.50;;
47481;SDS011;33219;47.410;9.730;2022-12-18T13:10:37;29.57;;;14.40;;
47481;SDS011;33219;47.410;9.730;2022-12-18T13:13:10;28.87;;;13.67;;
47481;SDS011;33219;47.410;9.730;2022-12-18T13:15:47;31.70;;;14.50;;
47481;SDS011;33219;47.410;9.730;2022-12-18T13:18:20;31.27;;;15.00;;
47481;SDS011;33219;47.410;9.730;2022-12-18T13:23:30;27.53;;;12.93;;
47481;SDS011;33219;47.410;9.730;2022-12-18T13:34:23;32.17;;;14.17;;
47481;SDS011;33219;47.410;9.730;2022-12-18T13:36:47;29.35;;;12.78;;
47481;SDS011;33219;47.410;9.730;2022-12-18T13:41:49;29.10;;;13.33;;
47481;SDS011;33219;47.410;9.730;2022-12-18T13:44:39;27.47;;;13.37;;
47481;SDS011;33219;47.410;9.730;2022-12-18T13:47:24;29.23;;;13.22;;
47481;SDS011;33219;47.410;9.730;2022-12-18T13:49:43;30.67;;;13.63;;
47481;SDS011;33219;47.410;9.730;2022-12-18T13:52:28;33.77;;;14.13;;
47481;SDS011;33219;47.410;9.730;2022-12-18T13:54:54;27.58;;;13.65;;
47481;SDS011;33219;47.410;9.730;2022-12-18T13:57:28;32.93;;;14.57;;
47481;SDS011;33219;47.410;9.730;2022-12-18T14:02:54;33.40;;;13.77;;
47481;SDS011;33219;47.410;9.730;2022-12-18T14:07:58;31.53;;;13.73;;
47481;SDS011;33219;47.410;9.730;2022-12-18T14:10:28;32.13;;;15.07;;
47481;SDS011;33219;47.410;9.730;2022-12-18T14:12:56;29.67;;;13.90;;
47481;SDS011;33219;47.410;9.730;2022-12-18T14:18:12;29.83;;;14.50;;
47481;SDS011;33219;47.410;9.730;2022-12-18T14:20:48;37.28;;;14.33;;
47481;SDS011;33219;47.410;9.730;2022-12-18T14:28:58;32.67;;;15.10;;
47481;SDS011;33219;47.410;9.730;2022-12-18T14:31:29;30.07;;;15.00;;
47481;SDS011;33219;47.410;9.730;2022-12-18T14:33:57;28.87;;;14.07;;
47481;SDS011;33219;47.410;9.730;2022-12-18T14:36:26;36.20;;;15.60;;
47481;SDS011;33219;47.410;9.730;2022-12-18T14:38:55;32.57;;;15.30;;
47481;SDS011;33219;47.410;9.730;2022-12-18T14:41:25;35.47;;;15.87;;
47481;SDS011;33219;47.410;9.730;2022-12-18T14:43:54;33.53;;;15.17;;
47481;SDS011;33219;47.410;9.730;2022-12-18T14:48:59;31.07;;;15.33;;
47481;SDS011;33219;47.410;9.730;2022-12-18T14:51:29;31.27;;;14.67;;
47481;SDS011;33219;47.410;9.730;2022-12-18T14:53:59;30.90;;;14.27;;
47481;SDS011;33219;47.410;9.730;2022-12-18T14:56:30;35.27;;;15.23;;
47481;SDS011;33219;47.410;9.730;2022-12-18T14:59:00;29.37;;;14.10;;
47481;SDS011;33219;47.410;9.730;2022-12-18T15:01:35;33.23;;;14.43;;
47481;SDS011;33219;47.410;9.730;2022-12-18T15:04:05;34.47;;;15.93;;
47481;SDS011;33219;47.410;9.730;2022-12-18T15:06:37;31.17;;;13.70;;
47481;SDS011;33219;47.410;9.730;2022-12-18T15:09:28;32.57;;;14.13;;
47481;SDS011;33219;47.410;9.730;2022-12-18T15:11:49;34.03;;;15.10;;
47481;SDS011;33219;47.410;9.730;2022-12-18T15:15:01;31.40;;;15.10;;
47481;SDS011;33219;47.410;9.730;2022-12-18T15:16:52;33.20;;;15.17;;
47481;SDS011;33219;47.410;9.730;2022-12-18T15:19:21;33.70;;;14.83;;
47481;SDS011;33219;47.410;9.730;2022-12-18T15:21:51;35.17;;;14.80;;
47481;SDS011;33219;47.410;9.730;2022-12-18T15:24:24;38.63;;;16.63;;
47481;SDS011;33219;47.410;9.730;2022-12-18T15:26:50;31.73;;;14.37;;
47481;SDS011;33219;47.410;9.730;2022-12-18T15:29:19;31.97;;;14.43;;
47481;SDS011;33219;47.410;9.730;2022-12-18T15:32:03;33.00;;;14.40;;
47481;SDS011;33219;47.410;9.730;2022-12-18T15:34:33;30.67;;;14.33;;
47481;SDS011;33219;47.410;9.730;2022-12-18T15:37:02;33.53;;;14.90;;
47481;SDS011;33219;47.410;9.730;2022-12-18T15:39:31;34.27;;;14.97;;
47481;SDS011;33219;47.410;9.730;2022-12-18T15:42:01;36.13;;;14.77;;
47481;SDS011;33219;47.410;9.730;2022-12-18T15:44:47;30.23;;;14.13;;
47481;SDS011;33219;47.410;9.730;2022-12-18T15:47:15;31.70;;;14.83;;
47481;SDS011;33219;47.410;9.730;2022-12-18T15:49:43;33.83;;;14.97;;
47481;SDS011;33219;47.410;9.730;2022-12-18T15:52:11;36.57;;;16.60;;
47481;SDS011;33219;47.410;9.730;2022-12-18T15:54:42;36.43;;;16.67;;
47481;SDS011;33219;47.410;9.730;2022-12-18T15:57:27;34.03;;;14.97;;
47481;SDS011;33219;47.410;9.730;2022-12-18T15:59:57;35.10;;;15.63;;
47481;SDS011;33219;47.410;9.730;2022-12-18T16:02:25;37.77;;;14.90;;
47481;SDS011;33219;47.410;9.730;2022-12-18T16:04:54;40.93;;;16.93;;
47481;SDS011;33219;47.410;9.730;2022-12-18T16:07:25;37.20;;;16.20;;
47481;SDS011;33219;47.410;9.730;2022-12-18T16:09:53;35.07;;;16.50;;
47481;SDS011;33219;47.410;9.730;2022-12-18T16:12:21;37.97;;;16.63;;
47481;SDS011;33219;47.410;9.730;2022-12-18T16:14:51;35.30;;;16.90;;
47481;SDS011;33219;47.410;9.730;2022-12-18T16:17:20;41.87;;;16.53;;
47481;SDS011;33219;47.410;9.730;2022-12-18T16:19:48;35.90;;;16.57;;